sensor_id;sensor_type;location;lat;lon;timestamp;P1;durP1;ratioP1;P2;durP2;ratioP2
39032;SDS011;24794;51.982;5.878;2022-11-20T00:00:52;10.15;;;6.28;;
39032;SDS011;24794;51.982;5.878;2022-11-20T00:01:52;10.15;;;6.18;;
39032;SDS011;24794;51.982;5.878;2022-11-20T00:02:53;9.95;;;6.60;;
39032;SDS011;24794;51.982;5.878;2022-11-20T00:03:54;10.30;;;5.72;;
39032;SDS011;24794;51.982;5.878;2022-11-20T00:04:57;7.93;;;5.15;;
39032;SDS011;24794;51.982;5.878;2022-11-20T00:06:01;10.93;;;5.85;;
39032;SDS011;24794;51.982;5.878;2022-11-20T00:07:06;10.65;;;6.53;;
39032;SDS011;24794;51.982;5.878;2022-11-20T00:08:06;9.43;;;6.40;;
39032;SDS011;24794;51.982;5.878;2022-11-20T00:09:09;8.82;;;5.68;;
39032;SDS011;24794;51.982;5.878;2022-11-20T00:10:10;10.23;;;6.13;;
39032;SDS011;24794;51.982;5.878;2022-11-20T00:11:15;9.68;;;5.93;;
39032;SDS011;24794;51.982;5.878;2022-11-20T00:12:17;10.15;;;5.88;;
39032;SDS011;24794;51.982;5.878;2022-11-20T00:13:18;10.02;;;6.18;;
39032;SDS011;24794;51.982;5.878;2022-11-20T00:14:18;8.43;;;5.60;;
39032;SDS011;24794;51.982;5.878;2022-11-20T00:15:19;9.23;;;5.35;;
39032;SDS011;24794;51.982;5.878;2022-11-20T00:16:20;9.20;;;5.50;;
39032;SDS011;24794;51.982;5.878;2022-11-20T00:17:23;9.13;;;5.40;;
39032;SDS011;24794;51.982;5.878;2022-11-20T00:18:24;10.30;;;6.05;;
39032;SDS011;24794;51.982;5.878;2022-11-20T00:19:25;8.02;;;5.05;;
39032;SDS011;24794;51.982;5.878;2022-11-20T00:20:25;9.73;;;6.22;;
39032;SDS011;24794;51.982;5.878;2022-11-20T00:21:26;7.70;;;5.22;;
39032;SDS011;24794;51.982;5.878;2022-11-20T00:22:28;10.20;;;6.53;;
39032;SDS011;24794;51.982;5.878;2022-11-20T00:23:28;10.70;;;6.85;;
39032;SDS011;24794;51.982;5.878;2022-11-20T00:24:29;13.35;;;7.25;;
39032;SDS011;24794;51.982;5.878;2022-11-20T00:25:30;12.38;;;6.75;;
39032;SDS011;24794;51.982;5.878;2022-11-20T00:26:30;11.95;;;7.60;;
39032;SDS011;24794;51.982;5.878;2022-11-20T00:27:31;11.32;;;7.53;;
39032;SDS011;24794;51.982;5.878;2022-11-20T00:28:32;12.70;;;7.18;;
39032;SDS011;24794;51.982;5.878;2022-11-20T00:29:32;11.63;;;6.85;;
39032;SDS011;24794;51.982;5.878;2022-11-20T00:30:33;10.15;;;6.22;;
39032;SDS011;24794;51.982;5.878;2022-11-20T00:31:34;10.48;;;6.60;;
39032;SDS011;24794;51.982;5.878;2022-11-20T00:32:35;10.30;;;6.60;;
39032;SDS011;24794;51.982;5.878;2022-11-20T00:33:35;9.70;;;5.97;;
39032;SDS011;24794;51.982;5.878;2022-11-20T00:34:36;10.90;;;6.10;;
39032;SDS011;24794;51.982;5.878;2022-11-20T00:35:37;11.32;;;6.85;;
39032;SDS011;24794;51.982;5.878;2022-11-20T00:36:37;10.38;;;6.40;;
39032;SDS011;24794;51.982;5.878;2022-11-20T00:37:38;10.68;;;6.10;;
39032;SDS011;24794;51.982;5.878;2022-11-20T00:38:38;11.48;;;6.65;;
39032;SDS011;24794;51.982;5.878;2022-11-20T00:39:39;13.95;;;7.60;;
39032;SDS011;24794;51.982;5.878;2022-11-20T00:40:39;10.10;;;6.25;;
39032;SDS011;24794;51.982;5.878;2022-11-20T00:41:40;9.85;;;5.78;;
39032;SDS011;24794;51.982;5.878;2022-11-20T00:42:40;10.65;;;6.70;;
39032;SDS011;24794;51.982;5.878;2022-11-20T00:43:41;10.23;;;6.22;;
39032;SDS011;24794;51.982;5.878;2022-11-20T00:44:42;9.32;;;5.82;;
39032;SDS011;24794;51.982;5.878;2022-11-20T00:45:43;10.45;;;6.18;;
39032;SDS011;24794;51.982;5.878;2022-11-20T00:46:43;9.63;;;5.97;;
39032;SDS011;24794;51.982;5.878;2022-11-20T00:47:44;8.98;;;5.65;;
39032;SDS011;24794;51.982;5.878;2022-11-20T00:48:44;13.35;;;7.15;;
39032;SDS011;24794;51.982;5.878;2022-11-20T00:49:46;9.73;;;6.20;;
39032;SDS011;24794;51.982;5.878;2022-11-20T00:50:46;11.73;;;7.07;;
39032;SDS011;24794;51.982;5.878;2022-11-20T00:51:47;11.98;;;7.43;;
39032;SDS011;24794;51.982;5.878;2022-11-20T00:52:47;9.82;;;6.60;;
39032;SDS011;24794;51.982;5.878;2022-11-20T00:53:48;12.18;;;6.90;;
39032;SDS011;24794;51.982;5.878;2022-11-20T00:54:49;8.70;;;5.93;;
39032;SDS011;24794;51.982;5.878;2022-11-20T00:55:59;11.48;;;7.20;;
39032;SDS011;24794;51.982;5.878;2022-11-20T00:57:02;10.45;;;6.57;;
39032;SDS011;24794;51.982;5.878;2022-11-20T00:58:03;12.82;;;6.32;;
39032;SDS011;24794;51.982;5.878;2022-11-20T00:59:04;10.15;;;6.40;;
39032;SDS011;24794;51.982;5.878;2022-11-20T01:00:04;9.90;;;6.20;;
39032;SDS011;24794;51.982;5.878;2022-11-20T01:01:07;7.75;;;5.22;;
39032;SDS011;24794;51.982;5.878;2022-11-20T01:02:08;13.60;;;6.78;;
39032;SDS011;24794;51.982;5.878;2022-11-20T01:03:08;9.30;;;5.60;;
39032;SDS011;24794;51.982;5.878;2022-11-20T01:04:09;11.55;;;6.60;;
39032;SDS011;24794;51.982;5.878;2022-11-20T01:05:09;7.50;;;5.22;;
39032;SDS011;24794;51.982;5.878;2022-11-20T01:06:20;7.85;;;5.20;;
39032;SDS011;24794;51.982;5.878;2022-11-20T01:07:25;8.18;;;5.45;;
39032;SDS011;24794;51.982;5.878;2022-11-20T01:08:28;8.40;;;5.45;;
39032;SDS011;24794;51.982;5.878;2022-11-20T01:09:30;11.48;;;6.90;;
39032;SDS011;24794;51.982;5.878;2022-11-20T01:10:31;11.15;;;5.85;;
39032;SDS011;24794;51.982;5.878;2022-11-20T01:11:33;9.32;;;5.88;;
39032;SDS011;24794;51.982;5.878;2022-11-20T01:12:35;9.48;;;5.85;;
39032;SDS011;24794;51.982;5.878;2022-11-20T01:13:36;9.38;;;6.00;;
39032;SDS011;24794;51.982;5.878;2022-11-20T01:14:37;9.88;;;5.95;;
39032;SDS011;24794;51.982;5.878;2022-11-20T01:15:38;10.52;;;5.40;;
39032;SDS011;24794;51.982;5.878;2022-11-20T01:16:40;10.02;;;5.72;;
39032;SDS011;24794;51.982;5.878;2022-11-20T01:17:42;8.25;;;5.03;;
39032;SDS011;24794;51.982;5.878;2022-11-20T01:18:43;8.82;;;5.78;;
39032;SDS011;24794;51.982;5.878;2022-11-20T01:19:48;11.20;;;6.65;;
39032;SDS011;24794;51.982;5.878;2022-11-20T01:20:49;11.50;;;6.90;;
39032;SDS011;24794;51.982;5.878;2022-11-20T01:21:51;10.55;;;6.93;;
39032;SDS011;24794;51.982;5.878;2022-11-20T01:22:53;10.25;;;6.78;;
39032;SDS011;24794;51.982;5.878;2022-11-20T01:23:54;11.63;;;6.78;;
39032;SDS011;24794;51.982;5.878;2022-11-20T01:24:55;10.15;;;6.80;;
39032;SDS011;24794;51.982;5.878;2022-11-20T01:25:55;10.15;;;6.90;;
39032;SDS011;24794;51.982;5.878;2022-11-20T01:26:56;11.40;;;7.35;;
39032;SDS011;24794;51.982;5.878;2022-11-20T01:27:56;14.25;;;6.95;;
39032;SDS011;24794;51.982;5.878;2022-11-20T01:28:57;16.33;;;7.57;;
39032;SDS011;24794;51.982;5.878;2022-11-20T01:29:58;11.82;;;7.30;;
39032;SDS011;24794;51.982;5.878;2022-11-20T01:30:59;11.93;;;7.53;;
39032;SDS011;24794;51.982;5.878;2022-11-20T01:32:00;11.57;;;7.57;;
39032;SDS011;24794;51.982;5.878;2022-11-20T01:33:01;12.68;;;7.13;;
39032;SDS011;24794;51.982;5.878;2022-11-20T01:34:05;11.45;;;7.38;;
39032;SDS011;24794;51.982;5.878;2022-11-20T01:35:08;11.85;;;6.90;;
39032;SDS011;24794;51.982;5.878;2022-11-20T01:36:10;11.15;;;7.32;;
39032;SDS011;24794;51.982;5.878;2022-11-20T01:37:11;14.55;;;7.97;;
39032;SDS011;24794;51.982;5.878;2022-11-20T01:38:12;10.40;;;6.90;;
39032;SDS011;24794;51.982;5.878;2022-11-20T01:39:14;12.80;;;7.88;;
39032;SDS011;24794;51.982;5.878;2022-11-20T01:40:16;12.80;;;7.35;;
39032;SDS011;24794;51.982;5.878;2022-11-20T01:41:16;11.30;;;7.50;;
39032;SDS011;24794;51.982;5.878;2022-11-20T01:42:36;11.27;;;6.60;;
39032;SDS011;24794;51.982;5.878;2022-11-20T01:44:01;9.95;;;5.95;;
39032;SDS011;24794;51.982;5.878;2022-11-20T01:46:57;12.30;;;7.43;;
39032;SDS011;24794;51.982;5.878;2022-11-20T01:48:01;14.15;;;7.57;;
39032;SDS011;24794;51.982;5.878;2022-11-20T01:49:10;13.23;;;8.10;;
39032;SDS011;24794;51.982;5.878;2022-11-20T01:50:33;12.13;;;7.30;;
39032;SDS011;24794;51.982;5.878;2022-11-20T01:51:52;11.77;;;7.60;;
39032;SDS011;24794;51.982;5.878;2022-11-20T01:53:02;12.13;;;7.20;;
39032;SDS011;24794;51.982;5.878;2022-11-20T01:54:07;12.25;;;7.82;;
39032;SDS011;24794;51.982;5.878;2022-11-20T01:55:17;15.48;;;8.18;;
39032;SDS011;24794;51.982;5.878;2022-11-20T01:56:21;14.18;;;8.18;;
39032;SDS011;24794;51.982;5.878;2022-11-20T01:57:23;11.73;;;7.13;;
39032;SDS011;24794;51.982;5.878;2022-11-20T01:58:28;13.27;;;7.65;;
39032;SDS011;24794;51.982;5.878;2022-11-20T01:59:32;10.52;;;7.07;;
39032;SDS011;24794;51.982;5.878;2022-11-20T02:00:34;11.95;;;7.50;;
39032;SDS011;24794;51.982;5.878;2022-11-20T02:01:35;13.13;;;7.53;;
39032;SDS011;24794;51.982;5.878;2022-11-20T02:02:36;13.40;;;7.45;;
39032;SDS011;24794;51.982;5.878;2022-11-20T02:03:38;11.05;;;7.53;;
39032;SDS011;24794;51.982;5.878;2022-11-20T02:04:38;14.07;;;8.15;;
39032;SDS011;24794;51.982;5.878;2022-11-20T02:05:52;13.75;;;7.32;;
39032;SDS011;24794;51.982;5.878;2022-11-20T02:06:59;11.50;;;7.25;;
39032;SDS011;24794;51.982;5.878;2022-11-20T02:08:02;11.95;;;7.60;;
39032;SDS011;24794;51.982;5.878;2022-11-20T02:09:04;12.95;;;7.63;;
39032;SDS011;24794;51.982;5.878;2022-11-20T02:10:04;10.45;;;6.68;;
39032;SDS011;24794;51.982;5.878;2022-11-20T02:11:06;10.60;;;6.40;;
39032;SDS011;24794;51.982;5.878;2022-11-20T02:12:07;8.82;;;5.97;;
39032;SDS011;24794;51.982;5.878;2022-11-20T02:13:27;9.70;;;5.95;;
39032;SDS011;24794;51.982;5.878;2022-11-20T02:14:43;8.45;;;5.35;;
39032;SDS011;24794;51.982;5.878;2022-11-20T02:15:44;10.25;;;6.47;;
39032;SDS011;24794;51.982;5.878;2022-11-20T02:16:46;9.15;;;5.55;;
39032;SDS011;24794;51.982;5.878;2022-11-20T02:17:47;9.23;;;5.43;;
39032;SDS011;24794;51.982;5.878;2022-11-20T02:18:48;9.10;;;5.50;;
39032;SDS011;24794;51.982;5.878;2022-11-20T02:19:50;7.32;;;5.18;;
39032;SDS011;24794;51.982;5.878;2022-11-20T02:20:53;11.02;;;6.40;;
39032;SDS011;24794;51.982;5.878;2022-11-20T02:22:03;10.48;;;6.18;;
39032;SDS011;24794;51.982;5.878;2022-11-20T02:23:33;10.18;;;5.78;;
39032;SDS011;24794;51.982;5.878;2022-11-20T02:25:00;11.40;;;6.40;;
39032;SDS011;24794;51.982;5.878;2022-11-20T02:26:04;11.10;;;6.75;;
39032;SDS011;24794;51.982;5.878;2022-11-20T02:27:12;8.77;;;5.47;;
39032;SDS011;24794;51.982;5.878;2022-11-20T02:28:14;8.73;;;5.57;;
39032;SDS011;24794;51.982;5.878;2022-11-20T02:29:16;8.73;;;5.70;;
39032;SDS011;24794;51.982;5.878;2022-11-20T02:30:23;11.73;;;7.03;;
39032;SDS011;24794;51.982;5.878;2022-11-20T02:31:24;12.93;;;7.43;;
39032;SDS011;24794;51.982;5.878;2022-11-20T02:32:25;12.18;;;6.72;;
39032;SDS011;24794;51.982;5.878;2022-11-20T02:33:36;12.27;;;6.53;;
39032;SDS011;24794;51.982;5.878;2022-11-20T02:34:36;11.00;;;6.20;;
39032;SDS011;24794;51.982;5.878;2022-11-20T02:35:39;12.18;;;7.03;;
39032;SDS011;24794;51.982;5.878;2022-11-20T02:36:42;13.10;;;6.95;;
39032;SDS011;24794;51.982;5.878;2022-11-20T02:37:43;11.45;;;6.18;;
39032;SDS011;24794;51.982;5.878;2022-11-20T02:38:46;10.13;;;6.10;;
39032;SDS011;24794;51.982;5.878;2022-11-20T02:39:49;12.13;;;6.05;;
39032;SDS011;24794;51.982;5.878;2022-11-20T02:40:51;9.68;;;6.18;;
39032;SDS011;24794;51.982;5.878;2022-11-20T02:41:52;12.77;;;7.20;;
39032;SDS011;24794;51.982;5.878;2022-11-20T02:42:55;10.90;;;6.53;;
39032;SDS011;24794;51.982;5.878;2022-11-20T02:43:55;11.07;;;6.60;;
39032;SDS011;24794;51.982;5.878;2022-11-20T02:44:56;10.60;;;6.80;;
39032;SDS011;24794;51.982;5.878;2022-11-20T02:45:57;9.15;;;5.68;;
39032;SDS011;24794;51.982;5.878;2022-11-20T02:46:57;9.68;;;5.65;;
39032;SDS011;24794;51.982;5.878;2022-11-20T02:47:59;8.32;;;5.47;;
39032;SDS011;24794;51.982;5.878;2022-11-20T02:49:03;10.02;;;6.72;;
39032;SDS011;24794;51.982;5.878;2022-11-20T02:50:04;13.77;;;5.97;;
39032;SDS011;24794;51.982;5.878;2022-11-20T02:51:05;12.23;;;5.72;;
39032;SDS011;24794;51.982;5.878;2022-11-20T02:52:06;10.45;;;6.35;;
39032;SDS011;24794;51.982;5.878;2022-11-20T02:53:06;11.48;;;6.30;;
39032;SDS011;24794;51.982;5.878;2022-11-20T02:54:07;10.15;;;5.80;;
39032;SDS011;24794;51.982;5.878;2022-11-20T02:55:08;8.55;;;5.88;;
39032;SDS011;24794;51.982;5.878;2022-11-20T02:56:09;8.27;;;5.18;;
39032;SDS011;24794;51.982;5.878;2022-11-20T02:57:10;10.65;;;6.63;;
39032;SDS011;24794;51.982;5.878;2022-11-20T02:58:11;9.65;;;5.75;;
39032;SDS011;24794;51.982;5.878;2022-11-20T02:59:11;7.85;;;5.47;;
39032;SDS011;24794;51.982;5.878;2022-11-20T03:00:12;9.95;;;5.70;;
39032;SDS011;24794;51.982;5.878;2022-11-20T03:01:13;8.95;;;5.50;;
39032;SDS011;24794;51.982;5.878;2022-11-20T03:02:14;10.50;;;6.35;;
39032;SDS011;24794;51.982;5.878;2022-11-20T03:03:14;9.88;;;5.82;;
39032;SDS011;24794;51.982;5.878;2022-11-20T03:04:15;11.05;;;6.55;;
39032;SDS011;24794;51.982;5.878;2022-11-20T03:05:16;9.68;;;5.90;;
39032;SDS011;24794;51.982;5.878;2022-11-20T03:06:16;10.77;;;6.90;;
39032;SDS011;24794;51.982;5.878;2022-11-20T03:07:17;10.50;;;6.45;;
39032;SDS011;24794;51.982;5.878;2022-11-20T03:08:17;11.82;;;6.75;;
39032;SDS011;24794;51.982;5.878;2022-11-20T03:09:18;10.95;;;6.20;;
39032;SDS011;24794;51.982;5.878;2022-11-20T03:10:18;9.80;;;6.00;;
39032;SDS011;24794;51.982;5.878;2022-11-20T03:11:19;10.07;;;5.88;;
39032;SDS011;24794;51.982;5.878;2022-11-20T03:12:19;9.40;;;5.95;;
39032;SDS011;24794;51.982;5.878;2022-11-20T03:13:20;10.68;;;6.53;;
39032;SDS011;24794;51.982;5.878;2022-11-20T03:14:21;8.70;;;5.40;;
39032;SDS011;24794;51.982;5.878;2022-11-20T03:15:24;9.73;;;5.20;;
39032;SDS011;24794;51.982;5.878;2022-11-20T03:16:25;10.00;;;5.82;;
39032;SDS011;24794;51.982;5.878;2022-11-20T03:17:25;11.00;;;6.43;;
39032;SDS011;24794;51.982;5.878;2022-11-20T03:18:27;9.98;;;6.22;;
39032;SDS011;24794;51.982;5.878;2022-11-20T03:19:28;9.93;;;6.07;;
39032;SDS011;24794;51.982;5.878;2022-11-20T03:20:29;11.95;;;6.57;;
39032;SDS011;24794;51.982;5.878;2022-11-20T03:21:30;9.85;;;6.68;;
39032;SDS011;24794;51.982;5.878;2022-11-20T03:22:32;9.55;;;6.32;;
39032;SDS011;24794;51.982;5.878;2022-11-20T03:23:33;8.65;;;5.40;;
39032;SDS011;24794;51.982;5.878;2022-11-20T03:24:34;9.32;;;5.57;;
39032;SDS011;24794;51.982;5.878;2022-11-20T03:25:35;8.77;;;5.90;;
39032;SDS011;24794;51.982;5.878;2022-11-20T03:26:35;10.68;;;6.38;;
39032;SDS011;24794;51.982;5.878;2022-11-20T03:27:36;10.85;;;6.30;;
39032;SDS011;24794;51.982;5.878;2022-11-20T03:28:36;11.23;;;6.45;;
39032;SDS011;24794;51.982;5.878;2022-11-20T03:29:37;10.05;;;6.22;;
39032;SDS011;24794;51.982;5.878;2022-11-20T03:30:38;8.88;;;5.63;;
39032;SDS011;24794;51.982;5.878;2022-11-20T03:31:39;10.65;;;6.55;;
39032;SDS011;24794;51.982;5.878;2022-11-20T03:32:40;9.95;;;6.32;;
39032;SDS011;24794;51.982;5.878;2022-11-20T03:33:42;11.50;;;6.70;;
39032;SDS011;24794;51.982;5.878;2022-11-20T03:34:42;8.68;;;5.93;;
39032;SDS011;24794;51.982;5.878;2022-11-20T03:35:43;9.00;;;5.72;;
39032;SDS011;24794;51.982;5.878;2022-11-20T03:36:43;9.85;;;5.50;;
39032;SDS011;24794;51.982;5.878;2022-11-20T03:37:44;9.63;;;5.97;;
39032;SDS011;24794;51.982;5.878;2022-11-20T03:38:45;10.15;;;6.45;;
39032;SDS011;24794;51.982;5.878;2022-11-20T03:39:47;11.57;;;7.00;;
39032;SDS011;24794;51.982;5.878;2022-11-20T03:40:47;8.68;;;6.10;;
39032;SDS011;24794;51.982;5.878;2022-11-20T03:41:48;8.95;;;5.70;;
39032;SDS011;24794;51.982;5.878;2022-11-20T03:42:49;10.98;;;5.93;;
39032;SDS011;24794;51.982;5.878;2022-11-20T03:43:54;10.98;;;6.50;;
39032;SDS011;24794;51.982;5.878;2022-11-20T03:44:56;8.65;;;5.97;;
39032;SDS011;24794;51.982;5.878;2022-11-20T03:45:56;12.40;;;6.97;;
39032;SDS011;24794;51.982;5.878;2022-11-20T03:46:57;10.73;;;6.82;;
39032;SDS011;24794;51.982;5.878;2022-11-20T03:47:58;9.75;;;6.35;;
39032;SDS011;24794;51.982;5.878;2022-11-20T03:48:58;8.63;;;5.80;;
39032;SDS011;24794;51.982;5.878;2022-11-20T03:49:59;9.23;;;5.97;;
39032;SDS011;24794;51.982;5.878;2022-11-20T03:51:13;9.20;;;5.95;;
39032;SDS011;24794;51.982;5.878;2022-11-20T03:52:15;10.77;;;5.93;;
39032;SDS011;24794;51.982;5.878;2022-11-20T03:53:16;11.20;;;6.60;;
39032;SDS011;24794;51.982;5.878;2022-11-20T03:54:17;10.05;;;5.65;;
39032;SDS011;24794;51.982;5.878;2022-11-20T03:55:17;9.65;;;6.32;;
39032;SDS011;24794;51.982;5.878;2022-11-20T03:56:19;10.02;;;6.45;;
39032;SDS011;24794;51.982;5.878;2022-11-20T03:57:22;10.65;;;6.57;;
39032;SDS011;24794;51.982;5.878;2022-11-20T03:58:22;10.20;;;6.60;;
39032;SDS011;24794;51.982;5.878;2022-11-20T03:59:23;8.68;;;5.65;;
39032;SDS011;24794;51.982;5.878;2022-11-20T04:00:23;9.65;;;6.15;;
39032;SDS011;24794;51.982;5.878;2022-11-20T04:01:25;12.02;;;6.70;;
39032;SDS011;24794;51.982;5.878;2022-11-20T04:02:27;9.70;;;5.85;;
39032;SDS011;24794;51.982;5.878;2022-11-20T04:03:28;8.85;;;5.50;;
39032;SDS011;24794;51.982;5.878;2022-11-20T04:04:28;10.30;;;6.00;;
39032;SDS011;24794;51.982;5.878;2022-11-20T04:05:29;7.72;;;5.43;;
39032;SDS011;24794;51.982;5.878;2022-11-20T04:06:33;10.90;;;6.75;;
39032;SDS011;24794;51.982;5.878;2022-11-20T04:07:35;11.57;;;7.03;;
39032;SDS011;24794;51.982;5.878;2022-11-20T04:08:36;9.95;;;5.95;;
39032;SDS011;24794;51.982;5.878;2022-11-20T04:09:37;10.77;;;6.57;;
39032;SDS011;24794;51.982;5.878;2022-11-20T04:10:38;10.07;;;5.97;;
39032;SDS011;24794;51.982;5.878;2022-11-20T04:11:39;10.43;;;6.10;;
39032;SDS011;24794;51.982;5.878;2022-11-20T04:12:40;9.85;;;6.00;;
39032;SDS011;24794;51.982;5.878;2022-11-20T04:13:41;10.27;;;6.40;;
39032;SDS011;24794;51.982;5.878;2022-11-20T04:14:42;10.65;;;6.88;;
39032;SDS011;24794;51.982;5.878;2022-11-20T04:15:42;8.82;;;5.63;;
39032;SDS011;24794;51.982;5.878;2022-11-20T04:16:43;9.00;;;5.25;;
39032;SDS011;24794;51.982;5.878;2022-11-20T04:17:44;10.15;;;6.40;;
39032;SDS011;24794;51.982;5.878;2022-11-20T04:18:44;10.52;;;6.88;;
39032;SDS011;24794;51.982;5.878;2022-11-20T04:19:45;10.23;;;6.22;;
39032;SDS011;24794;51.982;5.878;2022-11-20T04:20:46;9.60;;;6.20;;
39032;SDS011;24794;51.982;5.878;2022-11-20T04:21:47;8.68;;;5.80;;
39032;SDS011;24794;51.982;5.878;2022-11-20T04:22:47;10.05;;;6.50;;
39032;SDS011;24794;51.982;5.878;2022-11-20T04:23:48;8.48;;;5.45;;
39032;SDS011;24794;51.982;5.878;2022-11-20T04:24:49;10.27;;;5.63;;
39032;SDS011;24794;51.982;5.878;2022-11-20T04:25:50;8.73;;;5.72;;
39032;SDS011;24794;51.982;5.878;2022-11-20T04:26:50;8.85;;;5.90;;
39032;SDS011;24794;51.982;5.878;2022-11-20T04:27:51;7.88;;;5.25;;
39032;SDS011;24794;51.982;5.878;2022-11-20T04:28:51;11.75;;;6.82;;
39032;SDS011;24794;51.982;5.878;2022-11-20T04:29:52;9.02;;;6.22;;
39032;SDS011;24794;51.982;5.878;2022-11-20T04:30:53;8.93;;;6.00;;
39032;SDS011;24794;51.982;5.878;2022-11-20T04:31:53;7.93;;;5.38;;
39032;SDS011;24794;51.982;5.878;2022-11-20T04:32:54;10.65;;;6.53;;
39032;SDS011;24794;51.982;5.878;2022-11-20T04:33:54;9.05;;;5.90;;
39032;SDS011;24794;51.982;5.878;2022-11-20T04:34:55;10.05;;;6.20;;
39032;SDS011;24794;51.982;5.878;2022-11-20T04:35:59;9.20;;;5.90;;
39032;SDS011;24794;51.982;5.878;2022-11-20T04:37:08;9.65;;;5.90;;
39032;SDS011;24794;51.982;5.878;2022-11-20T04:38:08;10.85;;;6.28;;
39032;SDS011;24794;51.982;5.878;2022-11-20T04:39:11;8.98;;;6.43;;
39032;SDS011;24794;51.982;5.878;2022-11-20T04:40:14;9.45;;;6.13;;
39032;SDS011;24794;51.982;5.878;2022-11-20T04:41:15;8.05;;;5.53;;
39032;SDS011;24794;51.982;5.878;2022-11-20T04:42:17;10.55;;;5.28;;
39032;SDS011;24794;51.982;5.878;2022-11-20T04:43:30;8.90;;;5.55;;
39032;SDS011;24794;51.982;5.878;2022-11-20T04:44:31;10.77;;;5.85;;
39032;SDS011;24794;51.982;5.878;2022-11-20T04:45:32;9.60;;;6.20;;
39032;SDS011;24794;51.982;5.878;2022-11-20T04:46:37;9.63;;;5.95;;
39032;SDS011;24794;51.982;5.878;2022-11-20T04:47:40;11.50;;;6.15;;
39032;SDS011;24794;51.982;5.878;2022-11-20T04:48:40;9.55;;;6.15;;
39032;SDS011;24794;51.982;5.878;2022-11-20T04:49:41;9.55;;;5.60;;
39032;SDS011;24794;51.982;5.878;2022-11-20T04:50:41;9.50;;;6.07;;
39032;SDS011;24794;51.982;5.878;2022-11-20T04:51:42;8.32;;;5.18;;
39032;SDS011;24794;51.982;5.878;2022-11-20T04:52:42;9.63;;;5.90;;
39032;SDS011;24794;51.982;5.878;2022-11-20T04:53:43;10.07;;;6.20;;
39032;SDS011;24794;51.982;5.878;2022-11-20T04:54:43;11.80;;;6.53;;
39032;SDS011;24794;51.982;5.878;2022-11-20T04:55:44;10.63;;;6.47;;
39032;SDS011;24794;51.982;5.878;2022-11-20T04:56:45;9.63;;;4.88;;
39032;SDS011;24794;51.982;5.878;2022-11-20T04:57:49;8.43;;;5.15;;
39032;SDS011;24794;51.982;5.878;2022-11-20T04:58:51;7.90;;;4.75;;
39032;SDS011;24794;51.982;5.878;2022-11-20T04:59:52;9.27;;;5.72;;
39032;SDS011;24794;51.982;5.878;2022-11-20T05:00:52;9.25;;;5.35;;
39032;SDS011;24794;51.982;5.878;2022-11-20T05:01:53;11.18;;;6.82;;
39032;SDS011;24794;51.982;5.878;2022-11-20T05:02:53;12.15;;;7.55;;
39032;SDS011;24794;51.982;5.878;2022-11-20T05:03:54;12.15;;;7.03;;
39032;SDS011;24794;51.982;5.878;2022-11-20T05:04:54;11.85;;;7.47;;
39032;SDS011;24794;51.982;5.878;2022-11-20T05:05:55;11.75;;;7.60;;
39032;SDS011;24794;51.982;5.878;2022-11-20T05:06:55;11.13;;;6.90;;
39032;SDS011;24794;51.982;5.878;2022-11-20T05:07:56;10.60;;;6.90;;
39032;SDS011;24794;51.982;5.878;2022-11-20T05:08:58;12.10;;;6.45;;
39032;SDS011;24794;51.982;5.878;2022-11-20T05:09:58;11.27;;;6.50;;
39032;SDS011;24794;51.982;5.878;2022-11-20T05:11:01;10.15;;;6.78;;
39032;SDS011;24794;51.982;5.878;2022-11-20T05:12:07;10.52;;;6.22;;
39032;SDS011;24794;51.982;5.878;2022-11-20T05:13:08;10.13;;;5.88;;
39032;SDS011;24794;51.982;5.878;2022-11-20T05:14:09;11.63;;;6.32;;
39032;SDS011;24794;51.982;5.878;2022-11-20T05:15:09;14.30;;;6.93;;
39032;SDS011;24794;51.982;5.878;2022-11-20T05:16:11;10.25;;;5.93;;
39032;SDS011;24794;51.982;5.878;2022-11-20T05:17:13;11.35;;;7.35;;
39032;SDS011;24794;51.982;5.878;2022-11-20T05:18:14;10.30;;;6.40;;
39032;SDS011;24794;51.982;5.878;2022-11-20T05:19:14;11.80;;;7.25;;
39032;SDS011;24794;51.982;5.878;2022-11-20T05:20:15;9.93;;;6.45;;
39032;SDS011;24794;51.982;5.878;2022-11-20T05:21:16;8.80;;;5.63;;
39032;SDS011;24794;51.982;5.878;2022-11-20T05:22:17;10.35;;;6.25;;
39032;SDS011;24794;51.982;5.878;2022-11-20T05:23:18;10.98;;;6.15;;
39032;SDS011;24794;51.982;5.878;2022-11-20T05:24:18;8.55;;;5.63;;
39032;SDS011;24794;51.982;5.878;2022-11-20T05:25:19;9.95;;;6.35;;
39032;SDS011;24794;51.982;5.878;2022-11-20T05:26:20;10.70;;;6.43;;
39032;SDS011;24794;51.982;5.878;2022-11-20T05:27:22;11.70;;;7.03;;
39032;SDS011;24794;51.982;5.878;2022-11-20T05:28:23;9.20;;;5.88;;
39032;SDS011;24794;51.982;5.878;2022-11-20T05:29:25;10.18;;;6.30;;
39032;SDS011;24794;51.982;5.878;2022-11-20T05:30:25;10.63;;;6.38;;
39032;SDS011;24794;51.982;5.878;2022-11-20T05:31:26;11.77;;;7.03;;
39032;SDS011;24794;51.982;5.878;2022-11-20T05:32:26;10.75;;;7.10;;
39032;SDS011;24794;51.982;5.878;2022-11-20T05:33:27;11.27;;;6.45;;
39032;SDS011;24794;51.982;5.878;2022-11-20T05:34:27;11.00;;;6.25;;
39032;SDS011;24794;51.982;5.878;2022-11-20T05:35:28;12.23;;;7.30;;
39032;SDS011;24794;51.982;5.878;2022-11-20T05:36:29;10.75;;;6.88;;
39032;SDS011;24794;51.982;5.878;2022-11-20T05:37:30;11.48;;;6.80;;
39032;SDS011;24794;51.982;5.878;2022-11-20T05:38:30;10.15;;;6.43;;
39032;SDS011;24794;51.982;5.878;2022-11-20T05:39:31;12.40;;;7.03;;
39032;SDS011;24794;51.982;5.878;2022-11-20T05:40:31;11.50;;;7.18;;
39032;SDS011;24794;51.982;5.878;2022-11-20T05:41:32;11.68;;;6.60;;
39032;SDS011;24794;51.982;5.878;2022-11-20T05:42:33;12.95;;;7.20;;
39032;SDS011;24794;51.982;5.878;2022-11-20T05:43:34;11.02;;;6.45;;
39032;SDS011;24794;51.982;5.878;2022-11-20T05:44:35;11.73;;;6.68;;
39032;SDS011;24794;51.982;5.878;2022-11-20T05:45:36;11.18;;;6.82;;
39032;SDS011;24794;51.982;5.878;2022-11-20T05:46:36;11.38;;;6.80;;
39032;SDS011;24794;51.982;5.878;2022-11-20T05:47:37;11.38;;;6.40;;
39032;SDS011;24794;51.982;5.878;2022-11-20T05:48:38;12.35;;;7.68;;
39032;SDS011;24794;51.982;5.878;2022-11-20T05:49:40;10.63;;;6.85;;
39032;SDS011;24794;51.982;5.878;2022-11-20T05:50:40;11.60;;;6.72;;
39032;SDS011;24794;51.982;5.878;2022-11-20T05:51:41;9.88;;;6.18;;
39032;SDS011;24794;51.982;5.878;2022-11-20T05:52:41;11.10;;;6.55;;
39032;SDS011;24794;51.982;5.878;2022-11-20T05:53:42;11.85;;;6.80;;
39032;SDS011;24794;51.982;5.878;2022-11-20T05:54:43;11.10;;;6.65;;
39032;SDS011;24794;51.982;5.878;2022-11-20T05:55:43;11.30;;;6.10;;
39032;SDS011;24794;51.982;5.878;2022-11-20T05:56:44;13.68;;;7.63;;
39032;SDS011;24794;51.982;5.878;2022-11-20T05:57:44;12.70;;;7.35;;
39032;SDS011;24794;51.982;5.878;2022-11-20T05:58:45;12.20;;;7.32;;
39032;SDS011;24794;51.982;5.878;2022-11-20T05:59:47;13.02;;;7.50;;
39032;SDS011;24794;51.982;5.878;2022-11-20T06:00:47;9.55;;;6.22;;
39032;SDS011;24794;51.982;5.878;2022-11-20T06:01:48;12.10;;;6.85;;
39032;SDS011;24794;51.982;5.878;2022-11-20T06:02:48;12.50;;;7.00;;
39032;SDS011;24794;51.982;5.878;2022-11-20T06:03:49;12.30;;;7.43;;
39032;SDS011;24794;51.982;5.878;2022-11-20T06:04:50;13.00;;;7.50;;
39032;SDS011;24794;51.982;5.878;2022-11-20T06:05:51;12.70;;;7.57;;
39032;SDS011;24794;51.982;5.878;2022-11-20T06:06:51;13.48;;;7.80;;
39032;SDS011;24794;51.982;5.878;2022-11-20T06:07:52;13.07;;;7.05;;
39032;SDS011;24794;51.982;5.878;2022-11-20T06:08:52;12.05;;;7.30;;
39032;SDS011;24794;51.982;5.878;2022-11-20T06:09:54;14.80;;;8.45;;
39032;SDS011;24794;51.982;5.878;2022-11-20T06:10:54;14.75;;;8.10;;
39032;SDS011;24794;51.982;5.878;2022-11-20T06:11:55;12.52;;;7.63;;